createdAt,value
2023-03-20T00:03:32.248Z,14.00
2023-03-20T00:07:33.381Z,13.90
2023-03-20T00:11:38.789Z,13.80
2023-03-20T00:15:42.351Z,13.80
2023-03-20T00:19:43.577Z,13.20
2023-03-20T00:23:45.630Z,13.00
2023-03-20T00:27:47.344Z,13.60
2023-03-20T00:31:48.868Z,13.70
2023-03-20T00:35:49.959Z,13.70
2023-03-20T00:39:51.078Z,13.90
2023-03-20T00:43:58.848Z,14.20
2023-03-20T00:48:01.238Z,14.00
2023-03-20T00:52:03.394Z,14.00
2023-03-20T00:56:05.393Z,13.90
2023-03-20T01:00:10.711Z,13.50
2023-03-20T01:04:14.740Z,13.50
2023-03-20T01:08:19.254Z,13.20
2023-03-20T01:12:20.331Z,13.20
2023-03-20T01:16:24.080Z,13.30
2023-03-20T01:20:28.257Z,12.80
2023-03-20T01:24:29.209Z,13.60
2023-03-20T01:28:31.804Z,13.00
2023-03-20T01:32:32.860Z,12.80
2023-03-20T01:36:33.948Z,12.80
2023-03-20T01:41:03.136Z,13.00
2023-03-20T01:45:14.413Z,12.60
2023-03-20T01:49:22.233Z,12.10
2023-03-20T01:53:26.939Z,13.20
2023-03-20T01:57:28.159Z,12.40
2023-03-20T02:01:29.616Z,12.60
2023-03-20T02:05:31.458Z,13.40
2023-03-20T02:09:32.553Z,13.00
2023-03-20T02:13:34.633Z,12.90
2023-03-20T02:17:35.816Z,12.90
2023-03-20T02:21:49.885Z,13.10
2023-03-20T02:26:14.138Z,12.90
2023-03-20T02:30:40.384Z,11.60
2023-03-20T02:34:56.846Z,12.80
2023-03-20T02:39:04.804Z,12.50
2023-03-20T02:43:18.413Z,12.90
2023-03-20T02:47:28.677Z,13.00
2023-03-20T02:51:45.910Z,12.80
2023-03-20T02:55:59.447Z,12.90
2023-03-20T03:00:13.528Z,13.40
2023-03-20T03:04:29.711Z,13.70
2023-03-20T03:08:34.517Z,13.50
2023-03-20T03:12:39.513Z,13.80
2023-03-20T03:16:42.610Z,13.40
2023-03-20T03:20:46.166Z,13.70
2023-03-20T03:24:50.788Z,13.00
2023-03-20T03:28:56.205Z,13.40
2023-03-20T03:33:23.395Z,12.70
2023-03-20T03:37:28.177Z,12.10
2023-03-20T03:41:41.708Z,13.70
2023-03-20T03:45:46.520Z,12.60
2023-03-20T03:49:57.212Z,12.90
2023-03-20T03:54:02.157Z,13.30
2023-03-20T03:58:09.948Z,12.60
2023-03-20T04:02:12.211Z,12.10
2023-03-20T04:06:16.158Z,11.40
2023-03-20T04:10:17.380Z,12.40
2023-03-20T04:14:18.920Z,11.00
2023-03-20T04:18:19.879Z,11.40
2023-03-20T04:22:20.948Z,11.30
2023-03-20T04:26:23.069Z,11.00
2023-03-20T04:30:24.072Z,11.60
2023-03-20T04:34:25.117Z,11.50
2023-03-20T04:38:26.668Z,11.00
2023-03-20T04:42:27.665Z,10.50
2023-03-20T04:46:28.704Z,11.00
2023-03-20T04:50:29.836Z,10.40
2023-03-20T04:54:31.126Z,11.60
2023-03-20T04:58:32.753Z,11.60
2023-03-20T05:02:33.916Z,10.50
2023-03-20T05:06:35.329Z,10.30
2023-03-20T05:14:39.924Z,11.00
2023-03-20T05:18:41.000Z,10.80
2023-03-20T05:22:42.259Z,10.70
2023-03-20T05:26:43.447Z,10.90
2023-03-20T05:30:44.840Z,10.80
2023-03-20T05:34:45.893Z,11.90
2023-03-20T05:38:46.993Z,12.10
2023-03-20T05:42:47.973Z,12.20
2023-03-20T05:46:48.999Z,11.60
2023-03-20T05:50:50.291Z,11.70
2023-03-20T05:54:51.271Z,10.80
2023-03-20T05:58:52.412Z,11.20
2023-03-20T06:02:53.678Z,11.00
2023-03-20T06:06:54.766Z,11.20
2023-03-20T06:10:56.029Z,11.80
2023-03-20T06:14:57.153Z,12.20
2023-03-20T06:18:58.981Z,12.20
2023-03-20T06:23:00.118Z,12.10
2023-03-20T06:27:01.255Z,10.90
2023-03-20T06:31:02.455Z,11.60
2023-03-20T06:35:05.338Z,12.30
2023-03-20T06:39:07.100Z,11.70
2023-03-20T06:43:08.408Z,11.50
2023-03-20T06:47:09.576Z,10.90
2023-03-20T06:51:10.887Z,12.30
2023-03-20T06:55:12.020Z,12.10
2023-03-20T06:59:13.348Z,12.10
2023-03-20T07:03:15.318Z,12.80
2023-03-20T07:07:16.621Z,12.30
2023-03-20T07:11:17.997Z,13.30
2023-03-20T07:15:19.686Z,13.10
2023-03-20T07:19:20.970Z,12.80
2023-03-20T07:23:22.114Z,13.10
2023-03-20T07:27:23.319Z,13.50
2023-03-20T07:31:28.332Z,13.10
2023-03-20T07:35:29.994Z,13.50
2023-03-20T07:39:31.547Z,13.00
2023-03-20T07:43:33.007Z,12.80
2023-03-20T07:47:34.732Z,12.90
2023-03-20T07:51:36.002Z,13.70
2023-03-20T07:55:37.499Z,13.60
2023-03-20T07:59:38.787Z,13.60
2023-03-20T08:03:39.970Z,12.60
2023-03-20T08:07:41.119Z,13.40
2023-03-20T08:11:42.594Z,13.10
2023-03-20T08:15:43.974Z,12.90
2023-03-20T08:19:45.374Z,13.50
2023-03-20T08:23:46.476Z,12.10
2023-03-20T08:27:48.063Z,12.10
2023-03-20T08:31:49.253Z,14.10
2023-03-20T08:35:58.085Z,14.40
2023-03-20T08:39:59.052Z,15.00
2023-03-20T08:44:01.121Z,15.30
2023-03-20T08:48:02.417Z,15.50
2023-03-20T08:52:03.873Z,14.80
2023-03-20T08:56:05.896Z,14.00
2023-03-20T09:00:09.151Z,14.80
2023-03-20T09:04:11.477Z,15.50
2023-03-20T09:08:13.125Z,16.10
2023-03-20T09:12:14.349Z,14.60
2023-03-20T09:16:15.974Z,15.40
2023-03-20T09:20:28.684Z,13.90
2023-03-20T09:24:30.829Z,13.30
2023-03-20T09:28:32.027Z,14.30
2023-03-20T09:32:34.405Z,15.20
2023-03-20T09:36:35.858Z,16.90
2023-03-20T09:40:43.580Z,15.80
2023-03-20T09:44:51.316Z,16.90
2023-03-20T09:49:18.660Z,16.00
2023-03-20T09:53:32.430Z,16.00
2023-03-20T09:57:45.834Z,15.40
2023-03-20T10:01:53.814Z,14.90
2023-03-20T10:06:04.026Z,14.80
2023-03-20T10:10:07.304Z,15.70
2023-03-20T10:14:31.669Z,14.60
2023-03-20T10:18:36.203Z,14.30
2023-03-20T10:22:49.971Z,13.80
2023-03-20T10:26:53.317Z,13.00
2023-03-20T10:31:17.632Z,13.40
2023-03-20T10:35:25.785Z,14.10
2023-03-20T10:39:56.398Z,13.60
2023-03-20T10:43:59.064Z,14.30
2023-03-20T10:48:03.897Z,14.30
2023-03-20T10:52:08.922Z,15.00
2023-03-20T10:56:16.894Z,14.40
2023-03-20T11:00:20.916Z,14.00
2023-03-20T11:04:22.163Z,15.00
2023-03-20T11:08:25.518Z,14.60
2023-03-20T11:12:30.579Z,14.60
2023-03-20T11:16:36.260Z,14.60
2023-03-20T11:20:41.166Z,15.20
2023-03-20T11:24:45.514Z,15.40
2023-03-20T11:28:49.892Z,14.60
2023-03-20T11:32:54.591Z,16.20
2023-03-20T11:37:09.721Z,15.60
2023-03-20T11:41:04.464Z,14.60
2023-03-20T11:45:09.031Z,15.30
2023-03-20T11:49:20.259Z,14.80
2023-03-20T11:53:33.858Z,14.70
2023-03-20T11:57:41.431Z,15.70
2023-03-20T12:01:48.594Z,15.10
2023-03-20T12:05:49.565Z,15.80
2023-03-20T12:09:54.529Z,15.20
2023-03-20T12:13:59.896Z,14.50
2023-03-20T12:18:07.500Z,15.00
2023-03-20T12:22:18.234Z,15.20
2023-03-20T12:26:37.749Z,15.90
2023-03-20T12:30:51.628Z,15.50
2023-03-20T12:34:59.200Z,16.20
2023-03-20T12:39:06.160Z,15.50
2023-03-20T12:43:14.169Z,15.50
2023-03-20T12:47:52.226Z,15.50
2023-03-20T12:52:02.604Z,15.30
2023-03-20T12:56:13.872Z,16.40
2023-03-20T13:00:24.940Z,16.50
2023-03-20T13:04:45.534Z,15.40
2023-03-20T13:08:50.587Z,15.60
2023-03-20T13:13:07.666Z,15.70
2023-03-20T13:17:30.718Z,15.80
2023-03-20T13:21:41.732Z,15.10
2023-03-20T13:25:53.500Z,15.20
2023-03-20T13:30:15.175Z,14.40
2023-03-20T13:34:35.330Z,14.20
2023-03-20T13:38:40.439Z,14.70
2023-03-20T13:42:51.412Z,14.80
2023-03-20T13:47:05.595Z,14.20
2023-03-20T13:51:30.550Z,15.50
2023-03-20T13:55:46.596Z,13.80
2023-03-20T14:00:00.565Z,14.50
2023-03-20T14:04:02.446Z,14.50
2023-03-20T14:08:19.908Z,14.60
2023-03-20T14:12:24.546Z,14.50
2023-03-20T14:16:28.440Z,14.80
2023-03-20T14:20:38.945Z,13.70
2023-03-20T14:24:43.909Z,13.50
2023-03-20T14:29:00.497Z,13.70
2023-03-20T14:33:07.960Z,13.30
2023-03-20T14:37:12.720Z,14.00
2023-03-20T14:41:23.609Z,14.40
2023-03-20T14:45:46.417Z,14.20
2023-03-20T14:50:26.167Z,13.20
2023-03-20T14:54:29.785Z,13.30
2023-03-20T14:58:49.137Z,13.10
2023-03-20T15:02:53.247Z,13.20
2023-03-20T15:07:01.242Z,12.10
2023-03-20T15:11:10.988Z,12.30
2023-03-20T15:15:25.073Z,11.00
2023-03-20T15:19:26.885Z,11.30
2023-03-20T15:23:27.989Z,11.00
2023-03-20T15:27:29.070Z,11.20
2023-03-20T15:31:33.921Z,11.10
2023-03-20T15:35:35.137Z,12.40
2023-03-20T15:39:46.115Z,12.30
2023-03-20T15:43:47.252Z,11.90
2023-03-20T15:47:48.236Z,12.10
2023-03-20T15:51:50.865Z,13.00
2023-03-20T15:56:04.438Z,13.10
2023-03-20T15:59:58.758Z,14.20
2023-03-20T16:04:00.757Z,13.30
2023-03-20T16:08:21.631Z,12.90
2023-03-20T16:12:23.014Z,13.90
2023-03-20T16:16:24.357Z,13.70
2023-03-20T16:20:29.396Z,13.70
2023-03-20T16:24:36.684Z,13.50
2023-03-20T16:28:38.231Z,13.00
2023-03-20T16:32:42.803Z,13.70
2023-03-20T16:36:47.696Z,13.40
2023-03-20T16:40:49.676Z,13.70
2023-03-20T16:44:57.815Z,13.60
2023-03-20T16:49:19.021Z,12.50
2023-03-20T16:53:20.311Z,13.70
2023-03-20T16:57:21.928Z,14.10
2023-03-20T17:01:26.742Z,12.20
2023-03-20T17:05:43.412Z,12.40
2023-03-20T17:10:20.115Z,12.10
2023-03-20T17:14:21.128Z,12.10
2023-03-20T17:18:22.087Z,12.40
2023-03-20T17:22:25.145Z,11.40
2023-03-20T17:26:26.427Z,11.40
2023-03-20T17:30:27.598Z,11.90
2023-03-20T17:34:28.669Z,12.40
2023-03-20T17:38:30.890Z,12.00
2023-03-20T17:42:32.612Z,12.00
2023-03-20T17:46:40.264Z,11.70
2023-03-20T17:50:37.170Z,12.50
2023-03-20T17:54:38.544Z,12.00
2023-03-20T17:58:42.938Z,12.20
2023-03-20T18:02:43.977Z,12.60
2023-03-20T18:06:47.071Z,13.00
2023-03-20T18:10:49.841Z,13.30
2023-03-20T18:14:51.093Z,12.90
2023-03-20T18:18:53.237Z,13.40
2023-03-20T18:22:54.342Z,13.40
2023-03-20T18:26:55.799Z,12.50
2023-03-20T18:30:57.278Z,13.20
2023-03-20T18:34:58.506Z,13.10
2023-03-20T18:38:59.904Z,13.30
2023-03-20T18:43:01.764Z,13.40
2023-03-20T18:47:02.795Z,13.30
2023-03-20T18:51:04.151Z,13.20
2023-03-20T18:55:06.153Z,13.20
2023-03-20T18:59:07.657Z,13.00
2023-03-20T19:03:10.641Z,12.30
2023-03-20T19:07:12.565Z,13.00
2023-03-20T19:11:20.538Z,12.50
2023-03-20T19:15:22.054Z,13.10
2023-03-20T19:19:23.144Z,13.10
2023-03-20T19:23:25.741Z,13.30
2023-03-20T19:27:27.352Z,13.50
2023-03-20T19:31:28.787Z,13.40
2023-03-20T19:35:54.392Z,13.70
2023-03-20T19:39:34.766Z,13.10
2023-03-20T19:43:51.482Z,13.30
2023-03-20T19:47:39.783Z,13.10
2023-03-20T19:51:41.239Z,12.70
2023-03-20T19:55:42.937Z,13.40
2023-03-20T19:59:44.224Z,12.80
2023-03-20T20:03:45.686Z,13.30
2023-03-20T20:08:17.106Z,13.10
2023-03-20T20:11:49.981Z,12.70
2023-03-20T20:15:51.910Z,12.90
2023-03-20T20:19:54.387Z,12.70
2023-03-20T20:23:55.687Z,12.70
2023-03-20T20:27:56.702Z,12.70
2023-03-20T20:31:59.287Z,13.00
2023-03-20T20:36:46.068Z,13.10
2023-03-20T20:40:09.809Z,12.70
2023-03-20T20:44:16.530Z,12.70
2023-03-20T20:48:15.067Z,13.10
2023-03-20T20:52:17.046Z,12.40
2023-03-20T20:56:18.564Z,13.00
2023-03-20T21:00:22.486Z,12.40
2023-03-20T21:04:23.593Z,12.70
2023-03-20T21:08:24.913Z,12.00
2023-03-20T21:12:38.211Z,12.20
2023-03-20T21:16:31.260Z,12.40
2023-03-20T21:20:33.397Z,11.70
2023-03-20T21:24:35.092Z,12.60
2023-03-20T21:28:36.629Z,12.60
2023-03-20T21:32:39.183Z,13.00
2023-03-20T21:36:41.628Z,13.20
2023-03-20T21:40:43.745Z,12.40
2023-03-20T21:45:35.850Z,12.50
2023-03-20T21:53:34.335Z,12.70
2023-03-20T21:57:29.359Z,12.40
2023-03-20T22:01:46.013Z,11.80
2023-03-20T22:05:43.330Z,12.40
2023-03-20T22:14:05.930Z,12.60
2023-03-20T22:38:12.850Z,12.50
2023-03-20T22:42:24.161Z,12.70
2023-03-20T22:45:42.711Z,12.00
2023-03-20T22:49:39.104Z,12.50
2023-03-20T22:53:40.282Z,12.70
2023-03-20T22:57:47.680Z,12.40
2023-03-20T23:01:43.964Z,12.50
2023-03-20T23:05:45.172Z,12.90
2023-03-20T23:09:47.740Z,13.00
2023-03-20T23:13:49.526Z,12.00
2023-03-20T23:17:50.770Z,12.60
2023-03-20T23:21:51.880Z,13.00
2023-03-20T23:26:10.810Z,12.70
2023-03-20T23:30:12.834Z,13.00
2023-03-20T23:34:14.770Z,12.90
2023-03-20T23:38:16.597Z,11.90
2023-03-20T23:42:30.019Z,12.30
2023-03-20T23:46:21.379Z,12.70
2023-03-20T23:54:32.332Z,12.40
2023-03-20T23:58:34.751Z,11.80
